Mexican Cut, RMBL, Colorado Weather observations

Data are for 10 minute period ending at time listed.
 Day   Time   Solar   Ave.   Ave.  Ave.  Vector  Max.   Baro.   Total    
  of    of     Rad.   Air    Rel.  Wind   Wind   Wind  Press.  Precip.   
Year   Day            Temp.  Hum.  Speed  Dir.   Gust                    
2016   (MST)  Kw/m2    F      %     mph   deg.    mph    mb.     in.     
-------------------------------------------------------------------------
 119    5:30   0.01   24.6    97    4.6   122     8.8   664.2    0.00 
 119    5:40   0.01   24.6    96    3.6   132     8.1   664.1    0.00 
 119    5:50   0.02   24.8    96    4.3   130     8.8   664.1    0.00 
 119    6:00   0.04   25.0    96    4.6   139     9.4   664.1    0.00 
 119    6:10   0.08   25.4    95    4.7   130    10.0   664.0    0.00 
 119    6:20   0.12   25.7    94    4.4   122    13.7   664.1    0.01 
 119    6:30   0.13   25.9    95    4.2   118     8.4   664.1    0.00 
 119    6:40   0.15   26.0    95    4.9   120    11.2   664.2    0.00 
 119    6:50   0.16   26.4    94    4.7   118    16.4   664.2    0.00 
 119    7:00   0.13   26.5    92    5.8   117    14.2   664.2    0.00 
 119    7:10   0.11   26.7    90    7.2   128    19.1   664.1    0.00 
 119    7:20   0.12   26.8    90    5.4   132    11.8   664.2    0.00 
 119    7:30   0.17   27.1    89    6.4   128    13.6   664.2    0.00 
 119    7:40   0.17   27.0    88    7.7   137    23.6   664.2    0.00 
 119    7:50   0.20   27.2    87    6.6   127    17.5   664.2    0.00 
 119    8:00   0.23   27.4    87    5.6   124    12.3   664.2    0.00 
 119    8:10   0.21   27.1    88    6.7   126    18.9   664.2    0.00 
 119    8:20   0.21   27.4    85    6.9   122    15.2   664.2    0.00 
 119    8:30   0.25   27.3    86    6.2   122    19.4   664.1    0.00 
 119    8:40   0.26   27.2    88    5.4   143    13.1   664.1    0.00 
 119    8:50   0.28   28.6    85    3.4   140    12.2   664.2    0.00 
 119    9:00   0.15   27.8    86    3.4   178    10.5   664.3    0.00 
 119    9:10   0.06   26.0    90    7.0   171    17.8   664.6    0.00 
 119    9:20   0.09   24.2    92    5.1   172    13.5   664.9    0.00 
 119    9:30   0.08   23.9    92    6.3   191    15.4   664.9    0.00 
 119    9:40   0.07   23.6    94    4.0   247     9.5   665.0    0.00 
 119    9:50   0.27   24.3    93    5.5   198    16.7   664.9    0.00 
 119   10:00   0.44   26.3    82    6.6   224    20.7   665.0    0.00 
 119   10:10   0.59   27.9    74    6.8   218    18.6   665.0    0.00 
 119   10:20   0.73   29.2    68    6.8   206    15.4   665.0    0.00 
 119   10:30   0.80   31.3    63    4.5   213    10.9   664.9    0.00 
 119   10:40   1.04   34.1    58    5.3   176    12.1   664.8    0.00 
 119   10:50   0.97   36.1    53    4.6   174     9.4   664.8    0.00 
 119   11:00   1.12   35.5    56    3.5   156     8.3   664.8    0.00 
 119   11:10   1.09   36.6    54    2.6   155     7.3   664.6    0.00 
 119   11:20   0.83   36.2    55    2.6   181     9.3   664.5    0.00 
 119   11:30   0.84   38.0    54    2.0   153     5.8   664.4    0.04 
 119   11:40   0.94   36.1    58    2.7   130     9.2   664.5    0.02 
 119   11:50   0.68   38.0    52    4.2   183    10.6   664.6    0.04 
 119   12:00   0.58   37.0    57    2.8   140     8.7   664.6    0.00 
 119   12:10   0.34   33.8    68    3.2    98    10.9   664.5    0.00 
 119   12:20   0.14   30.4    76    6.0   124    14.2   664.6    0.00 
 119   12:30   0.12   29.1    80    5.3   128    11.8   664.7    0.00 
 119   12:40   0.17   29.1    78    5.3   175    13.7   664.9    0.00 
 119   12:50   0.21   29.6    69    6.2   175    15.3   665.1    0.00 
 119   13:00   0.25   30.5    72    1.6    77     6.1   665.0    0.00 
 119   13:10   0.35   30.8    70    1.4    71     4.2   664.9    0.00 
 119   13:20   0.33   31.8    69    2.2    90     5.3   664.8    0.02 
 119   13:30   0.29   31.8    69    2.2    91     5.3   664.7    0.00 
 119   13:40   0.38   32.9    65    2.7   136     5.7   664.7    0.00 
 119   13:50   0.52   35.8    58    0.9   182     2.5   664.7    0.02 
 119   14:00   0.33   37.3    54    0.9   118     3.3   664.7    0.00 
 119   14:10   0.31   34.3    55    4.8   120    15.0   664.8    0.00 
 119   14:20   0.27   33.7    49    3.7   171    12.5   664.9    0.00 
 119   14:30   0.13   32.1    48    4.9   172    14.7   665.0    0.00 
 119   14:40   0.23   31.9    46    3.7   196    17.4   664.9    0.00 
 119   14:50   0.55   34.5    44    4.3   173    14.2   665.0    0.00 
 119   15:00   0.55   35.4    45    4.4   201    11.7   665.1    0.00 
 119   15:10   0.88   38.7    40    4.0   195     8.2   665.0    0.00 
 119   15:20   0.44   38.7    36    3.8   191     9.0   665.0    0.00 
 119   15:30   0.27   36.2    39    4.0   168     8.8   664.9    0.00 
 119   15:40   0.20   35.1    40    3.2   183     7.0   664.9    0.00 
 119   15:50   0.14   33.7    43    3.6   124    12.2   665.0    0.00 
 119   16:00   0.13   32.4    43    6.1   186    16.2   665.1    0.00 
 119   16:10   0.16   32.2    48    4.8   184    12.9   665.0    0.00 
 119   16:20   0.16   31.6    60    8.6   181    18.4   665.6    0.00 
 119   16:30   0.25   31.2    69    4.7   191    11.8   665.9    0.00 
 119   16:40   0.23   31.4    66    2.8   208     7.5   666.0    0.00 
 119   16:50   0.24   31.6    64    2.0   262     5.8   666.0    0.00 
 119   17:00   0.20   31.8    59    2.3   166     6.8   665.9    0.00 
 119   17:10   0.18   31.3    70    1.6   343     3.9   665.7    0.00 
 119   17:20   0.20   30.4    77    1.9   106     5.2   665.9    0.00 
 119   17:30   0.13   31.1    70    3.2   148     7.0   666.1    0.00 
 119   17:40   0.09   29.8    68    4.0   127     9.4   666.1    0.00 
 119   17:50   0.07   28.8    71    4.2   134     7.6   666.1    0.00 
 119   18:00   0.04   28.2    72    4.8   133    11.1   666.1    0.00 
 119   18:10   0.03   27.9    74    3.1   143     6.9   666.3    0.00 
 119   18:20   0.02   27.2    79    4.7   137    10.8   666.4    0.00 
 119   18:30   0.01   26.0    87    2.7   120     6.0   666.3    0.00 
 119   18:40   0.02   25.4    92    3.5   128     8.0   666.5    0.00 
 119   18:50   0.01   24.9    92    2.7   119     5.6   666.4    0.00 
 119   19:00   0.00   24.7    91    2.5   147     6.1   666.4    0.00 
 119   19:10   0.00   24.6    93    2.9   122     7.4   666.4    0.00 
 119   19:20   100.00  99999.0   99999  99999.0   99999   99999.0   99999.0   99999.00 
 119   19:30   0.00   23.7    95    2.3   142     3.9   666.5    0.00 
 119   19:40   0.00   23.4    95    2.0   133     4.5   666.6    0.00 
 119   19:50   0.00   23.5    95    1.1   117     2.6   666.7    0.00 
 119   20:00   0.00   23.6    95    1.7   113     3.8   666.5    0.00 
 119   20:10   0.00   23.3    96    4.0   161     9.8   666.6    0.00 
 119   20:20   0.00   23.6    96    2.8   137     6.3   667.0    0.00 
 119   20:30   0.00   23.8    96    2.6   130     5.1   667.2    0.00 
 119   20:40   0.00   24.0    95    2.8   117     7.0   667.1    0.00 
 119   20:50   0.00   23.8    97    4.6   125     9.9   667.1    0.00 
 119   21:00   0.00   23.7    98    4.4   125     9.3   666.9    0.00 
 119   21:10   0.00   23.8    98    4.6   142     9.4   666.8    0.00 
 119   21:20   0.00   23.7    98    5.6   129    13.2   666.6    0.00 
 119   21:30   0.00   23.7    98    4.6   160     8.6   666.9    0.00 
 119   21:40   0.00   23.8    98    4.2   149    13.4   667.0    0.00 
 119   21:50   0.00   24.5    92    4.7   155    10.2   667.0    0.00 
 119   22:00   0.00   24.5    89    5.1   162    11.0   666.8    0.00 
 119   22:10   0.00   24.4    90    4.9   147     9.1   666.6    0.00 
 119   22:20   0.00   24.4    89    3.6   138     9.5   666.8    0.00 
 119   22:30   0.00   24.7    87    3.4   137     6.8   666.8    0.00 
 119   22:40   0.00   24.6    88    3.3   131     6.6   666.6    0.00 
 119   22:50   0.00   24.5    89    2.0   150     5.4   666.7    0.00 
 119   23:00   0.00   24.7    88    1.9   116     4.0   666.7    0.00 
 119   23:10   0.00   24.5    90    2.5   135     5.8   666.7    0.00 
 119   23:20   0.00   24.6    90    3.1   144     7.2   666.7    0.00 
 119   23:30   0.00   24.9    88    1.9   119     3.9   666.7    0.00 
 119   23:40   0.00   24.6    90    3.0   144     5.8   666.5    0.00 
 119   23:50   0.00   24.5    91    2.5   149     7.2   666.6    0.00 
 120    0:00   0.00   24.7    90    2.2   157     5.0   666.6    0.00 
 120    0:10   0.00   24.8    89    2.9   121     5.7   666.5    0.00 
 120    0:20   0.00   24.4    92    4.2   139     7.2   666.6    0.00 
 120    0:30   0.00   24.4    92    3.5   130     7.5   666.5    0.00 
 120    0:40   0.00   24.1    94    3.5   126     7.2   666.4    0.00 
 120    0:50   0.00   23.8    95    3.9   120     8.9   666.5    0.00 
 120    1:00   0.00   23.6    96    4.1   125     7.5   666.4    0.00 
 120    1:10   0.00   23.4    97    4.4   141     8.6   666.3    0.00 
 120    1:20   0.00   23.4    97    4.3   133     8.2   666.3    0.00 
 120    1:30   0.00   23.3    98    4.1   126     8.5   666.3    0.00 
 120    1:40   0.00   23.3    98    3.6   129     7.8   666.2    0.00 
 120    1:50   0.00   23.3    98    4.2   136     9.8   666.1    0.00 
 120    2:00   0.00   23.3    98    3.1   147     7.1   666.0    0.00 
 120    2:10   0.00   23.4    98    3.3   156     8.1   666.0    0.00 
 120    2:20   0.00   23.4    97    1.8   144     4.4   665.9    0.00 
 120    2:30   0.00   23.3    97    2.8   153     5.3   665.9    0.00 
 120    2:40   0.00   23.3    96    2.2   140     5.1   665.7    0.00 
 120    2:50   0.00   23.2    97    2.8   134     8.1   665.9    0.00 
 120    3:00   0.00   22.5    92    4.8   204    11.3   666.0    0.00 
 120    3:10   0.00   22.2    92    1.7   340     4.3   665.9    0.00 
 120    3:20   0.00   21.8    96    3.7   329     8.5   665.8    0.00 
 120    3:30   0.00   21.1    97    1.9   347     6.0   665.8    0.00 
 120    3:40   0.00   20.8    97    1.5   127     3.8   665.9    0.00 
 120    3:50   0.00   20.6    97    1.6   342     4.3   665.9    0.00 
 120    4:00   0.00   20.5    97    2.2   290     4.9   665.7    0.00 
 120    4:10   0.00   20.3    97    1.9   288     3.9   665.6    0.00 
 120    4:20   0.00   20.3    97    0.7   292     2.7   665.7    0.00 
 120    4:30   0.00   20.3    97    0.2   147     1.7   665.7    0.00 
 120    4:40   0.00   20.3    97    0.4   118     1.3   665.6    0.00 
 120    4:50   0.00   20.4    97    0.3    90     1.8   665.6    0.00 
 120    5:00   0.00   20.5    97    1.3   115     3.9   665.6    0.00 
 120    5:10   0.00   20.5    97    0.8   106     2.7   665.4    0.00 
 120    5:20   0.00   20.5    97    0.5   138     2.0   665.3    0.00 

Return to Mexican Cut, RMBL, Colorado graphs page.


Western Regional Climate Center,wrcc@dri.edu